Time;durP1;ratioP1;P1;durP2;ratioP2;P2;SDS_P1;SDS_P2;PMS_P1;PMS_P2;Temp;Humidity;BMP_temperature;BMP_pressure;BME280_temperature;BME280_humidity;BME280_pressure;Samples;Min_cycle;Max_cycle;Signal;HPM_P1;HPM_P2
2023/12/21 00:02:02;;;;;;;15.85;12.52;;;22.60;72.90;;;;;;6194518;28;90078;-64
2023/12/21 00:05:05;;;;;;;16.40;12.70;;;22.60;72.90;;;;;;6196466;28;89018;-64
2023/12/21 00:08:07;;;;;;;15.48;12.98;;;22.60;72.90;;;;;;6204836;28;89011;-64
2023/12/21 00:11:09;;;;;;;15.35;12.20;;;22.60;72.90;;;;;;6201155;28;88973;-64
2023/12/21 00:14:12;;;;;;;15.73;12.27;;;22.60;72.90;;;;;;6198006;28;90378;-63
2023/12/21 00:17:14;;;;;;;16.77;12.30;;;22.60;72.90;;;;;;6195044;28;89516;-64
2023/12/21 00:20:20;;;;;;;13.80;10.63;;;22.60;72.80;;;;;;6207333;28;88964;-64
2023/12/21 00:23:22;;;;;;;15.52;11.40;;;22.60;72.80;;;;;;6196755;28;87179;-64
2023/12/21 00:26:24;;;;;;;14.60;11.52;;;22.60;72.80;;;;;;6197086;28;89001;-64
2023/12/21 00:29:27;;;;;;;12.65;10.40;;;22.60;72.80;;;;;;6193170;28;89162;-65
2023/12/21 00:32:29;;;;;;;9.88;8.55;;;22.60;72.60;;;;;;6202318;28;89970;-65
2023/12/21 00:35:31;;;;;;;9.20;7.75;;;22.60;71.50;;;;;;6198836;28;89435;-65
2023/12/21 00:38:33;;;;;;;10.10;8.43;;;22.60;70.80;;;;;;6201236;28;89059;-65
2023/12/21 00:41:35;;;;;;;10.18;8.32;;;22.60;71.10;;;;;;6204708;28;89042;-65
2023/12/21 00:44:38;;;;;;;11.52;9.20;;;22.50;71.30;;;;;;6204192;28;89148;-65
2023/12/21 00:47:40;;;;;;;11.38;8.57;;;22.50;71.50;;;;;;6186361;28;89061;-64
2023/12/21 00:50:42;;;;;;;11.20;8.98;;;22.50;71.70;;;;;;6203057;28;89022;-65
2023/12/21 00:53:44;;;;;;;9.90;8.40;;;22.60;71.80;;;;;;6193410;28;88287;-65
2023/12/21 00:56:46;;;;;;;10.18;8.05;;;22.50;71.90;;;;;;6201195;28;89164;-65
2023/12/21 00:59:50;;;;;;;11.18;7.90;;;22.50;71.90;;;;;;6207002;28;89008;-65
2023/12/21 01:02:52;;;;;;;8.25;7.40;;;22.50;72.00;;;;;;6205764;28;89894;-65
2023/12/21 01:05:54;;;;;;;8.50;7.03;;;22.50;72.00;;;;;;6215141;28;88949;-65
2023/12/21 01:08:56;;;;;;;7.85;7.05;;;22.50;72.00;;;;;;6203639;28;88994;-65
2023/12/21 01:11:58;;;;;;;10.73;7.95;;;22.50;72.00;;;;;;6196637;28;89313;-65
2023/12/21 01:15:02;;;;;;;9.02;7.38;;;22.50;72.00;;;;;;6206834;28;89013;-65
2023/12/21 01:18:04;;;;;;;8.45;7.03;;;22.50;72.00;;;;;;6194218;28;89432;-65
2023/12/21 01:21:06;;;;;;;8.18;6.97;;;22.50;71.80;;;;;;6201927;28;89481;-65
2023/12/21 01:24:08;;;;;;;8.00;6.47;;;22.50;71.90;;;;;;6195281;28;88304;-65
2023/12/21 01:27:10;;;;;;;7.35;6.53;;;22.50;71.80;;;;;;6196034;28;89062;-65
2023/12/21 01:30:14;;;;;;;8.65;7.05;;;22.50;71.90;;;;;;6202191;28;89039;-64
2023/12/21 01:33:16;;;;;;;9.48;7.18;;;22.50;72.00;;;;;;6191258;28;90628;-65
2023/12/21 01:36:18;;;;;;;7.35;6.45;;;22.40;72.00;;;;;;6195561;28;89398;-65
2023/12/21 01:39:20;;;;;;;7.45;6.55;;;22.40;72.00;;;;;;6197477;28;88985;-65
2023/12/21 01:42:22;;;;;;;8.30;6.25;;;22.40;72.00;;;;;;6199236;28;89089;-65
2023/12/21 01:45:25;;;;;;;7.10;6.00;;;22.40;72.00;;;;;;6201004;28;89136;-65
2023/12/21 01:48:30;;;;;;;6.53;5.82;;;22.50;72.00;;;;;;6203329;28;89212;-65
2023/12/21 01:51:33;;;;;;;6.90;6.20;;;22.40;71.90;;;;;;6212891;28;89014;-65
2023/12/21 01:54:36;;;;;;;6.93;5.60;;;22.40;71.80;;;;;;6208104;28;88442;-65
2023/12/21 01:57:39;;;;;;;6.80;5.93;;;22.40;71.90;;;;;;6188246;28;89440;-65
2023/12/21 02:00:42;;;;;;;7.22;5.80;;;22.30;71.80;;;;;;6198837;28;89174;-65
2023/12/21 02:03:44;;;;;;;7.60;6.05;;;22.40;71.80;;;;;;6201406;28;89967;-65
2023/12/21 02:06:47;;;;;;;6.00;5.40;;;22.40;71.80;;;;;;6201513;28;89012;-65
2023/12/21 02:09:49;;;;;;;5.85;5.25;;;22.40;71.80;;;;;;6188353;28;90234;-65
2023/12/21 02:12:51;;;;;;;6.22;5.60;;;22.40;71.70;;;;;;6193024;28;89536;-65
2023/12/21 02:15:57;;;;;;;6.97;5.20;;;22.40;71.60;;;;;;6202930;28;89012;-65
2023/12/21 02:18:59;;;;;;;6.95;5.28;;;22.40;71.50;;;;;;6207588;28;89091;-65
2023/12/21 02:22:04;;;;;;;6.07;4.85;;;22.40;71.60;;;;;;6205818;28;89013;-65
2023/12/21 02:25:08;;;;;;;6.03;5.07;;;22.40;71.50;;;;;;6201299;28;88335;-65
2023/12/21 02:28:10;;;;;;;5.70;5.10;;;22.40;71.60;;;;;;6200248;28;89066;-65
2023/12/21 02:31:12;;;;;;;7.85;5.70;;;22.30;71.60;;;;;;6190324;28;89005;-65
2023/12/21 02:34:14;;;;;;;6.32;5.15;;;22.40;71.70;;;;;;6202677;28;90007;-65
2023/12/21 02:37:16;;;;;;;5.82;4.80;;;22.30;71.60;;;;;;6205420;28;90774;-65
2023/12/21 02:40:19;;;;;;;7.75;5.72;;;22.30;71.60;;;;;;6202540;28;89026;-65
2023/12/21 02:43:21;;;;;;;5.50;4.90;;;22.40;71.60;;;;;;6208464;28;89112;-65
2023/12/21 02:46:26;;;;;;;6.00;5.10;;;22.30;71.60;;;;;;6203700;28;87953;-65
2023/12/21 02:49:28;;;;;;;6.15;4.90;;;22.30;72.40;;;;;;6205174;28;89401;-65
2023/12/21 02:52:30;;;;;;;5.60;5.00;;;22.30;71.60;;;;;;6201804;28;89036;-65
2023/12/21 02:55:35;;;;;;;6.63;4.78;;;22.30;71.30;;;;;;6200748;28;88269;-65
2023/12/21 02:58:37;;;;;;;6.30;4.78;;;22.30;70.00;;;;;;6200041;28;88996;-65
2023/12/21 03:01:42;;;;;;;5.72;4.60;;;22.30;69.80;;;;;;6204864;28;87967;-65
2023/12/21 03:04:44;;;;;;;6.85;4.50;;;22.20;70.20;;;;;;6205143;28;89975;-65
2023/12/21 03:07:46;;;;;;;6.53;4.90;;;22.20;70.40;;;;;;6205276;28;89088;-65
2023/12/21 03:10:49;;;;;;;4.97;4.38;;;22.30;70.60;;;;;;6194786;28;87965;-65
2023/12/21 03:13:51;;;;;;;4.80;4.30;;;22.20;70.50;;;;;;6204886;28;89168;-65
2023/12/21 03:16:53;;;;;;;4.85;4.25;;;22.30;70.60;;;;;;6204794;28;89165;-65
2023/12/21 03:19:55;;;;;;;4.57;4.10;;;22.30;70.70;;;;;;6206872;28;89347;-65
2023/12/21 03:22:57;;;;;;;8.80;5.63;;;22.30;70.70;;;;;;6212026;28;89191;-65
2023/12/21 03:26:00;;;;;;;4.75;4.03;;;22.20;70.60;;;;;;6193453;28;88653;-65
2023/12/21 03:29:02;;;;;;;5.07;4.13;;;22.30;70.70;;;;;;6201391;28;89254;-65
2023/12/21 03:32:05;;;;;;;5.72;4.50;;;22.20;70.60;;;;;;6192129;28;89196;-65
2023/12/21 03:35:08;;;;;;;4.25;3.83;;;22.20;70.70;;;;;;6197964;28;89974;-65
2023/12/21 03:38:10;;;;;;;5.30;4.28;;;22.30;70.80;;;;;;6191834;28;89029;-65
2023/12/21 03:41:14;;;;;;;4.57;4.15;;;22.20;70.70;;;;;;6202053;28;88288;-65
2023/12/21 03:44:15;;;;;;;6.13;4.43;;;22.20;70.80;;;;;;6202028;28;89292;-65
2023/12/21 03:47:17;;;;;;;4.50;3.67;;;22.20;70.80;;;;;;6191936;28;89209;-65
2023/12/21 03:50:19;;;;;;;4.22;3.83;;;22.20;70.70;;;;;;6201880;28;89031;-65
2023/12/21 03:53:21;;;;;;;5.15;4.05;;;22.20;70.80;;;;;;6208263;28;89275;-65
2023/12/21 03:56:25;;;;;;;4.75;4.00;;;22.20;70.80;;;;;;6208465;28;88740;-65
2023/12/21 03:59:27;;;;;;;5.15;3.90;;;22.10;70.70;;;;;;6202251;28;89153;-65
2023/12/21 04:02:28;;;;;;;4.75;3.58;;;22.20;70.80;;;;;;6206770;28;89363;-66
2023/12/21 04:05:31;;;;;;;4.38;3.83;;;22.20;70.80;;;;;;6207730;28;90471;-65
2023/12/21 04:08:33;;;;;;;4.38;3.78;;;22.20;70.80;;;;;;6208751;28;89149;-65
2023/12/21 04:11:36;;;;;;;3.88;3.42;;;22.10;70.80;;;;;;6195032;28;89084;-65
2023/12/21 04:14:38;;;;;;;4.07;3.50;;;22.20;70.80;;;;;;6206679;28;88970;-65
2023/12/21 04:17:40;;;;;;;4.22;3.40;;;22.20;70.80;;;;;;6202226;28;88018;-65
2023/12/21 04:20:42;;;;;;;3.83;3.33;;;22.10;70.60;;;;;;6200506;28;89089;-66
2023/12/21 04:23:45;;;;;;;5.82;3.97;;;22.20;70.70;;;;;;6202226;28;89056;-65
2023/12/21 04:26:48;;;;;;;4.00;3.22;;;22.10;70.70;;;;;;6204081;28;88318;-65
2023/12/21 04:29:50;;;;;;;4.55;3.38;;;22.10;70.80;;;;;;6196306;28;89033;-65
2023/12/21 04:32:52;;;;;;;3.83;3.33;;;22.10;70.80;;;;;;6196512;28;89130;-65
2023/12/21 04:35:54;;;;;;;3.47;3.17;;;22.10;70.80;;;;;;6198131;28;89973;-65
2023/12/21 04:38:56;;;;;;;3.47;3.10;;;22.10;70.80;;;;;;6206505;28;89079;-65
2023/12/21 04:42:00;;;;;;;3.45;3.15;;;22.10;70.80;;;;;;6207535;28;88917;-65
2023/12/21 04:45:02;;;;;;;4.85;3.55;;;22.10;70.80;;;;;;6202340;28;89135;-65
2023/12/21 04:48:04;;;;;;;4.72;3.47;;;22.10;70.90;;;;;;6203943;28;87917;-65
2023/12/21 04:51:06;;;;;;;4.13;3.10;;;22.10;71.00;;;;;;6197614;28;88999;-65
2023/12/21 04:54:08;;;;;;;4.60;3.50;;;22.10;70.90;;;;;;6193565;28;88305;-65
2023/12/21 04:57:11;;;;;;;3.30;2.90;;;22.10;70.90;;;;;;6198703;28;88387;-65
2023/12/21 05:00:14;;;;;;;3.15;2.83;;;22.10;71.00;;;;;;6201357;28;89398;-65
2023/12/21 05:03:16;;;;;;;3.67;3.10;;;22.10;71.00;;;;;;6202559;28;89279;-65
2023/12/21 05:06:18;;;;;;;3.10;2.65;;;22.10;71.00;;;;;;6193068;28;90420;-65
2023/12/21 05:09:21;;;;;;;3.38;3.05;;;22.10;71.00;;;;;;6207582;28;87953;-65
2023/12/21 05:12:24;;;;;;;3.40;3.10;;;22.10;70.90;;;;;;6202319;28;89125;-65
2023/12/21 05:15:26;;;;;;;6.03;3.80;;;22.10;70.90;;;;;;6193687;28;89041;-65
2023/12/21 05:18:28;;;;;;;3.95;3.03;;;22.20;71.00;;;;;;6206577;28;89420;-65
2023/12/21 05:21:30;;;;;;;3.88;3.15;;;22.20;71.00;;;;;;6196053;28;88941;-65
2023/12/21 05:24:32;;;;;;;3.10;2.75;;;22.10;70.90;;;;;;6204296;28;89085;-65
2023/12/21 05:27:36;;;;;;;4.07;3.03;;;22.20;70.90;;;;;;6206478;28;88280;-65
2023/12/21 05:30:38;;;;;;;3.78;2.90;;;22.10;70.80;;;;;;6205525;28;89177;-65
2023/12/21 05:33:40;;;;;;;4.72;3.35;;;22.10;70.80;;;;;;6200362;28;89419;-65
2023/12/21 05:36:42;;;;;;;2.80;2.50;;;22.10;70.80;;;;;;6204446;28;90031;-65
2023/12/21 05:39:48;;;;;;;3.05;2.70;;;22.20;70.90;;;;;;6206138;28;89075;-65
2023/12/21 05:42:51;;;;;;;3.50;2.90;;;22.20;71.00;;;;;;6206693;28;88088;-65
2023/12/21 05:45:53;;;;;;;3.85;3.08;;;22.10;71.00;;;;;;6194076;28;89084;-65
2023/12/21 05:48:55;;;;;;;3.10;2.80;;;22.10;70.90;;;;;;6205894;28;89355;-65
2023/12/21 05:51:57;;;;;;;3.17;2.85;;;22.20;71.00;;;;;;6196302;28;89088;-65
2023/12/21 05:54:59;;;;;;;3.10;2.80;;;22.20;71.10;;;;;;6206822;28;89144;-65
2023/12/21 05:58:02;;;;;;;2.60;2.40;;;22.10;71.00;;;;;;6204870;28;88222;-65
2023/12/21 06:01:05;;;;;;;5.05;3.25;;;22.20;71.10;;;;;;6201364;28;89095;-64
2023/12/21 06:04:07;;;;;;;2.78;2.47;;;22.10;71.00;;;;;;6198768;28;89018;-64
2023/12/21 06:07:09;;;;;;;3.65;2.92;;;22.10;71.10;;;;;;6204137;28;89563;-64
2023/12/21 06:10:11;;;;;;;2.70;2.30;;;22.10;71.20;;;;;;6184981;28;89081;-64
2023/12/21 06:13:14;;;;;;;2.92;2.50;;;22.10;71.30;;;;;;6196595;28;89358;-66
2023/12/21 06:16:16;;;;;;;3.55;2.80;;;22.20;71.40;;;;;;6188694;28;89141;-63
2023/12/21 06:19:18;;;;;;;3.92;2.63;;;22.10;71.50;;;;;;6201888;28;88990;-64
2023/12/21 06:22:20;;;;;;;3.08;2.45;;;22.20;71.50;;;;;;6190515;28;89057;-64
2023/12/21 06:25:22;;;;;;;2.90;2.40;;;22.20;71.60;;;;;;6202275;28;89171;-63
2023/12/21 06:28:25;;;;;;;4.40;2.75;;;22.20;71.80;;;;;;6196128;28;88193;-63
2023/12/21 06:31:27;;;;;;;2.90;2.42;;;22.20;71.50;;;;;;6191868;28;89407;-63
2023/12/21 06:34:29;;;;;;;3.10;2.50;;;22.20;71.20;;;;;;6191939;28;89088;-63
2023/12/21 06:37:31;;;;;;;4.53;2.58;;;22.20;70.90;;;;;;6189883;28;90010;-63
2023/12/21 06:40:33;;;;;;;3.97;2.63;;;22.20;70.80;;;;;;6196898;28;88304;-63
2023/12/21 06:43:37;;;;;;;3.78;2.22;;;22.20;70.80;;;;;;6205304;28;89132;-63
2023/12/21 06:46:39;;;;;;;4.32;2.33;;;22.30;70.80;;;;;;6190839;28;89129;-64
2023/12/21 06:49:41;;;;;;;3.67;2.42;;;22.30;70.80;;;;;;6193076;28;89014;-64
2023/12/21 06:52:43;;;;;;;3.05;2.20;;;22.30;70.80;;;;;;6205848;28;87949;-63
2023/12/21 06:55:45;;;;;;;3.00;2.10;;;22.30;70.80;;;;;;6205239;28;89118;-64
2023/12/21 06:58:48;;;;;;;2.80;2.03;;;22.30;70.80;;;;;;6203528;28;88570;-63
2023/12/21 07:01:50;;;;;;;2.40;2.20;;;22.30;70.90;;;;;;6198257;28;89897;-64
2023/12/21 07:04:52;;;;;;;2.47;2.28;;;22.30;70.90;;;;;;6186102;28;89035;-63
2023/12/21 07:07:55;;;;;;;2.80;2.20;;;22.30;71.00;;;;;;6193243;28;90002;-64
2023/12/21 07:10:57;;;;;;;4.22;2.45;;;22.30;71.10;;;;;;6197785;28;89371;-63
2023/12/21 07:14:00;;;;;;;4.10;2.60;;;22.30;71.10;;;;;;6190774;28;89153;-63
2023/12/21 07:17:02;;;;;;;2.38;2.00;;;22.30;71.10;;;;;;6187912;28;88991;-63
2023/12/21 07:20:04;;;;;;;2.22;2.00;;;22.30;71.20;;;;;;6207661;28;88002;-64
2023/12/21 07:23:07;;;;;;;2.47;2.00;;;22.30;71.10;;;;;;6200987;28;89168;-64
2023/12/21 07:26:10;;;;;;;2.45;2.10;;;22.30;71.10;;;;;;6192896;28;89169;-64
2023/12/21 07:29:14;;;;;;;2.58;2.17;;;22.30;71.10;;;;;;6198604;28;88641;-63
2023/12/21 07:32:16;;;;;;;3.95;2.10;;;22.30;72.00;;;;;;6207334;28;89420;-64
2023/12/21 07:35:18;;;;;;;3.13;2.30;;;22.30;71.10;;;;;;6205203;28;88001;-64
2023/12/21 07:38:19;;;;;;;2.97;2.25;;;22.30;71.10;;;;;;6190011;28;90065;-63
2023/12/21 07:41:22;;;;;;;2.83;2.25;;;22.40;71.10;;;;;;6182921;28;89156;-64
2023/12/21 07:44:25;;;;;;;5.78;2.78;;;22.30;71.10;;;;;;6199313;28;89212;-64
2023/12/21 07:47:27;;;;;;;2.92;2.10;;;22.30;71.10;;;;;;6203120;28;88014;-63
2023/12/21 07:50:29;;;;;;;2.83;2.20;;;22.30;71.10;;;;;;6199353;28;88970;-64
2023/12/21 07:53:31;;;;;;;2.40;2.10;;;22.30;71.20;;;;;;6200016;28;89103;-63
2023/12/21 07:56:33;;;;;;;2.70;1.90;;;22.30;71.20;;;;;;6202411;28;89185;-64
2023/12/21 07:59:37;;;;;;;2.53;1.95;;;22.30;71.20;;;;;;6197309;28;88324;-63
2023/12/21 08:02:44;;;;;;;2.80;2.15;;;22.30;71.30;;;;;;6200696;28;89112;-64
2023/12/21 08:05:46;;;;;;;3.13;2.30;;;22.30;71.30;;;;;;6204888;28;87902;-64
2023/12/21 08:08:49;;;;;;;3.95;2.17;;;22.30;71.30;;;;;;6195948;28;90329;-63
2023/12/21 08:11:51;;;;;;;3.83;2.45;;;22.40;71.40;;;;;;6207025;28;88120;-63
2023/12/21 08:14:55;;;;;;;2.53;2.10;;;22.30;71.50;;;;;;6209578;28;88370;-64
2023/12/21 08:17:57;;;;;;;3.08;2.30;;;22.30;72.30;;;;;;6210819;28;89087;-63
2023/12/21 08:20:59;;;;;;;2.10;1.80;;;22.30;71.40;;;;;;6203049;28;89052;-63
2023/12/21 08:24:01;;;;;;;2.25;2.03;;;22.40;71.40;;;;;;6203843;28;89031;-63
2023/12/21 08:27:06;;;;;;;3.15;2.30;;;22.40;71.40;;;;;;6205739;28;89156;-64
2023/12/21 08:30:10;;;;;;;3.08;2.22;;;22.40;71.40;;;;;;6206229;28;88333;-63
2023/12/21 08:33:12;;;;;;;2.28;2.03;;;22.40;71.40;;;;;;6208345;28;89063;-64
2023/12/21 08:36:14;;;;;;;3.05;2.20;;;22.40;71.40;;;;;;6196755;28;89226;-63
2023/12/21 08:39:16;;;;;;;4.63;2.60;;;22.40;71.40;;;;;;6197504;28;90359;-63
2023/12/21 08:42:18;;;;;;;3.33;2.38;;;22.40;71.40;;;;;;6207466;28;89106;-63
2023/12/21 08:45:22;;;;;;;2.35;1.95;;;22.40;71.50;;;;;;6196124;28;89347;-63
2023/12/21 08:48:24;;;;;;;2.20;2.00;;;22.40;71.50;;;;;;6199543;28;89001;-64
2023/12/21 08:51:26;;;;;;;3.20;2.17;;;22.40;71.50;;;;;;6206111;28;87888;-64
2023/12/21 08:54:28;;;;;;;2.33;1.88;;;22.40;71.50;;;;;;6183127;28;89447;-64
2023/12/21 08:57:32;;;;;;;3.20;2.13;;;22.40;71.50;;;;;;6206417;28;89322;-63
2023/12/21 09:00:35;;;;;;;2.47;1.90;;;22.40;71.50;;;;;;6203345;28;88050;-63
2023/12/21 09:03:37;;;;;;;2.45;1.90;;;22.40;71.50;;;;;;6187047;28;88706;-63
2023/12/21 09:06:39;;;;;;;2.83;2.15;;;22.40;71.50;;;;;;6185028;28;89399;-64
2023/12/21 09:09:41;;;;;;;2.08;1.88;;;22.40;71.50;;;;;;6188494;28;88887;-64
2023/12/21 09:12:44;;;;;;;2.22;1.90;;;22.40;71.50;;;;;;6190393;28;89305;-64
2023/12/21 09:15:47;;;;;;;2.55;1.95;;;22.40;72.00;;;;;;6203781;28;89538;-64
2023/12/21 09:18:49;;;;;;;2.55;1.83;;;22.40;71.60;;;;;;6200212;28;89010;-63
2023/12/21 09:21:51;;;;;;;2.17;1.98;;;22.40;71.60;;;;;;6202934;28;89289;-64
2023/12/21 09:24:53;;;;;;;2.17;1.85;;;22.40;71.60;;;;;;6204935;28;89409;-63
2023/12/21 09:27:57;;;;;;;3.65;2.30;;;22.50;71.60;;;;;;6203165;28;89176;-64
2023/12/21 09:31:01;;;;;;;2.67;2.03;;;22.40;71.50;;;;;;6207742;28;87249;-63
2023/12/21 09:34:04;;;;;;;2.58;2.00;;;22.40;71.50;;;;;;6199871;28;89061;-64
2023/12/21 09:37:06;;;;;;;2.08;1.88;;;22.50;71.60;;;;;;6196993;28;89444;-63
2023/12/21 09:40:10;;;;;;;2.53;2.00;;;22.50;71.60;;;;;;6201834;28;90002;-64
2023/12/21 09:43:16;;;;;;;2.38;2.13;;;22.40;71.60;;;;;;6185650;28;89386;-63
2023/12/21 09:46:21;;;;;;;2.65;2.08;;;22.50;71.60;;;;;;6200077;28;89414;-63
2023/12/21 09:49:23;;;;;;;2.55;1.95;;;22.50;71.60;;;;;;6192243;28;89056;-63
2023/12/21 09:52:27;;;;;;;3.22;2.20;;;22.50;71.60;;;;;;6205101;28;89082;-64
2023/12/21 09:55:31;;;;;;;2.70;2.00;;;22.40;71.60;;;;;;6192205;28;89004;-64
2023/12/21 09:58:34;;;;;;;2.55;1.92;;;22.40;71.60;;;;;;6206225;28;89109;-63
2023/12/21 10:01:37;;;;;;;2.30;2.10;;;22.50;71.60;;;;;;6198057;28;88347;-64
2023/12/21 10:04:41;;;;;;;2.10;1.70;;;22.50;71.60;;;;;;6205785;28;89048;-65
2023/12/21 10:07:43;;;;;;;2.25;1.90;;;22.50;71.60;;;;;;6205501;28;88049;-65
2023/12/21 10:10:45;;;;;;;2.22;1.80;;;22.50;71.70;;;;;;6205464;28;90265;-64
2023/12/21 10:13:48;;;;;;;2.50;1.95;;;22.50;71.70;;;;;;6206395;28;89053;-64
2023/12/21 10:16:51;;;;;;;2.33;1.80;;;22.50;71.70;;;;;;6199277;28;88960;-64
2023/12/21 10:19:53;;;;;;;2.40;1.70;;;22.50;71.70;;;;;;6210736;28;88305;-64
2023/12/21 10:22:56;;;;;;;3.05;2.00;;;22.50;71.70;;;;;;6203829;28;89669;-65
2023/12/21 10:25:59;;;;;;;2.00;1.50;;;22.50;71.60;;;;;;6187539;28;89021;-65
2023/12/21 10:29:02;;;;;;;2.13;1.60;;;22.50;71.60;;;;;;6182177;28;89044;-65
2023/12/21 10:32:05;;;;;;;4.10;2.40;;;22.50;71.60;;;;;;6202589;28;88332;-65
2023/12/21 10:35:08;;;;;;;3.15;2.03;;;22.50;72.50;;;;;;6206475;28;89204;-65
2023/12/21 10:38:10;;;;;;;2.05;1.65;;;22.50;71.50;;;;;;6205581;28;89466;-65
2023/12/21 10:41:12;;;;;;;1.98;1.70;;;22.50;71.60;;;;;;6204196;28;90001;-65
2023/12/21 10:44:16;;;;;;;2.50;1.92;;;22.50;71.60;;;;;;6204227;28;89058;-65
2023/12/21 10:47:20;;;;;;;2.85;1.90;;;22.50;71.60;;;;;;6202905;28;89103;-65
2023/12/21 10:50:24;;;;;;;1.90;1.70;;;22.50;71.60;;;;;;6187208;28;89194;-65
2023/12/21 10:53:28;;;;;;;1.95;1.60;;;22.50;71.60;;;;;;6184159;28;89036;-64
2023/12/21 10:56:31;;;;;;;3.78;2.05;;;22.50;71.60;;;;;;6184179;28;89171;-65
2023/12/21 10:59:34;;;;;;;2.28;1.77;;;22.50;71.60;;;;;;6193489;28;89256;-65
2023/12/21 11:02:37;;;;;;;2.63;1.92;;;22.50;71.60;;;;;;6201034;28;89029;-65
2023/12/21 11:05:42;;;;;;;2.47;1.60;;;22.50;71.60;;;;;;6204116;28;89076;-65
2023/12/21 11:08:44;;;;;;;2.28;1.67;;;22.50;71.60;;;;;;6210688;28;89069;-64
2023/12/21 11:11:46;;;;;;;2.10;1.60;;;22.50;71.60;;;;;;6198552;28;89946;-64
2023/12/21 11:14:49;;;;;;;1.77;1.48;;;22.50;71.60;;;;;;6188736;28;88379;-64
2023/12/21 11:17:57;;;;;;;2.40;1.73;;;22.50;71.60;;;;;;6201765;28;89036;-64
2023/12/21 11:21:02;;;;;;;1.48;1.38;;;22.50;71.60;;;;;;6195335;28;89077;-65
2023/12/21 11:24:05;;;;;;;2.30;1.60;;;22.50;71.60;;;;;;6199993;28;89085;-65
2023/12/21 11:27:07;;;;;;;2.00;1.58;;;22.60;71.60;;;;;;6201591;28;89064;-65
2023/12/21 11:30:11;;;;;;;2.38;1.70;;;22.60;71.60;;;;;;6195869;28;90870;-65
2023/12/21 11:33:15;;;;;;;2.45;1.63;;;22.60;72.00;;;;;;6205144;28;87273;-64
2023/12/21 11:36:25;;;;;;;2.00;1.67;;;22.60;72.00;;;;;;6193591;28;89079;-64
2023/12/21 11:39:29;;;;;;;4.65;2.25;;;22.60;72.40;;;;;;6194592;28;89537;-65
2023/12/21 11:42:35;;;;;;;3.92;2.00;;;22.60;72.50;;;;;;6196230;28;88931;-65
2023/12/21 11:45:38;;;;;;;3.08;1.73;;;22.70;73.30;;;;;;6190603;28;89232;-65
2023/12/21 11:48:43;;;;;;;4.10;2.00;;;22.60;73.30;;;;;;6202168;28;89313;-65
2023/12/21 11:51:49;;;;;;;6.07;2.30;;;22.60;74.00;;;;;;6202866;28;89143;-65
2023/12/21 11:54:51;;;;;;;6.03;2.25;;;22.70;74.40;;;;;;6184397;28;89106;-65
2023/12/21 11:58:08;;;;;;;5.80;2.08;;;22.60;74.70;;;;;;6193608;28;88802;-65
2023/12/21 12:01:23;;;;;;;7.32;2.75;;;22.70;74.90;;;;;;6189022;28;89235;-65
2023/12/21 12:04:26;;;;;;;5.80;2.60;;;22.70;74.90;;;;;;6205293;28;88322;-65
2023/12/21 12:07:30;;;;;;;3.85;2.17;;;22.60;75.00;;;;;;6197777;28;89196;-65
2023/12/21 12:10:32;;;;;;;4.07;1.83;;;22.70;75.40;;;;;;6196902;28;89040;-65
2023/12/21 12:13:34;;;;;;;3.53;2.00;;;22.60;75.90;;;;;;6206663;28;90094;-65
2023/12/21 12:16:38;;;;;;;4.78;2.25;;;22.70;75.80;;;;;;6194888;28;89413;-64
2023/12/21 12:19:41;;;;;;;6.80;2.45;;;22.70;75.50;;;;;;6200814;28;88681;-65
2023/12/21 12:22:44;;;;;;;2.78;1.80;;;22.70;75.40;;;;;;6209001;28;89089;-65
2023/12/21 12:25:46;;;;;;;4.43;2.17;;;22.70;75.00;;;;;;6196677;28;89220;-64
2023/12/21 12:28:51;;;;;;;4.68;1.92;;;22.70;74.80;;;;;;6208624;28;89104;-65
2023/12/21 12:31:52;;;;;;;4.53;1.92;;;22.70;74.80;;;;;;6194499;28;89220;-64
2023/12/21 12:34:56;;;;;;;4.53;2.00;;;22.70;74.70;;;;;;6196694;28;88341;-64
2023/12/21 12:37:58;;;;;;;6.78;2.53;;;22.70;74.60;;;;;;6200343;28;89169;-64
2023/12/21 12:41:00;;;;;;;5.13;2.17;;;22.70;74.50;;;;;;6205413;28;88630;-64
2023/12/21 12:44:02;;;;;;;4.00;1.90;;;22.70;74.50;;;;;;6200287;28;90186;-64
2023/12/21 12:47:07;;;;;;;2.67;1.70;;;22.70;74.60;;;;;;6206680;28;89177;-64
2023/12/21 12:50:13;;;;;;;4.78;1.85;;;22.70;74.50;;;;;;6193810;28;87943;-64
2023/12/21 12:53:16;;;;;;;3.80;2.00;;;22.70;74.50;;;;;;6191804;28;89930;-64
2023/12/21 12:56:19;;;;;;;4.43;2.17;;;22.70;75.40;;;;;;6207130;28;89072;-64
2023/12/21 12:59:21;;;;;;;3.85;2.13;;;22.70;74.50;;;;;;6207233;28;87981;-65
2023/12/21 13:02:23;;;;;;;3.15;1.80;;;22.70;74.50;;;;;;6195851;28;89091;-64
2023/12/21 13:05:27;;;;;;;4.15;1.88;;;22.70;74.50;;;;;;6207015;28;88478;-65
2023/12/21 13:08:29;;;;;;;3.60;2.00;;;22.70;74.70;;;;;;6199808;28;89062;-64
2023/12/21 13:11:31;;;;;;;2.75;1.73;;;22.70;74.60;;;;;;6200323;28;89098;-64
2023/12/21 13:14:33;;;;;;;2.38;1.60;;;22.70;74.50;;;;;;6193593;28;89935;-64
2023/12/21 13:17:35;;;;;;;3.38;1.60;;;22.70;74.50;;;;;;6209930;28;88846;-64
2023/12/21 13:20:38;;;;;;;3.95;2.15;;;22.70;74.50;;;;;;6212922;28;89326;-65
2023/12/21 13:23:40;;;;;;;3.42;1.92;;;22.70;74.40;;;;;;6202778;28;88328;-64
2023/12/21 13:26:42;;;;;;;3.28;1.90;;;22.70;74.30;;;;;;6210267;28;89481;-65
2023/12/21 13:29:44;;;;;;;3.67;1.95;;;22.70;74.20;;;;;;6202248;28;89159;-64
2023/12/21 13:32:46;;;;;;;3.70;1.90;;;22.70;74.20;;;;;;6206468;28;89072;-64
2023/12/21 13:35:50;;;;;;;3.25;1.80;;;22.70;74.20;;;;;;6207858;28;88290;-64
2023/12/21 13:38:52;;;;;;;2.75;1.80;;;22.70;74.20;;;;;;6206778;28;89131;-64
2023/12/21 13:41:55;;;;;;;2.50;1.77;;;22.70;74.20;;;;;;6205343;28;89097;-64
2023/12/21 13:44:57;;;;;;;4.10;2.17;;;22.70;74.20;;;;;;6193322;28;90027;-64
2023/12/21 13:47:59;;;;;;;3.13;1.77;;;22.70;74.10;;;;;;6204997;28;89001;-64
2023/12/21 13:51:02;;;;;;;4.72;1.55;;;22.70;74.10;;;;;;6195480;28;89173;-64
2023/12/21 13:54:04;;;;;;;4.05;1.60;;;22.70;74.00;;;;;;6198418;28;89093;-64
2023/12/21 13:57:06;;;;;;;3.25;1.90;;;22.70;74.00;;;;;;6200172;28;89076;-64
2023/12/21 14:00:09;;;;;;;2.25;1.60;;;22.70;74.00;;;;;;6199361;28;89273;-64
2023/12/21 14:03:14;;;;;;;2.10;1.48;;;22.70;74.10;;;;;;6193200;28;89379;-64
2023/12/21 14:06:17;;;;;;;2.63;1.60;;;22.70;74.00;;;;;;6205158;28;88374;-64
2023/12/21 14:09:19;;;;;;;3.00;1.85;;;22.70;74.00;;;;;;6199132;28;89055;-64
2023/12/21 14:12:21;;;;;;;1.88;1.50;;;22.70;74.00;;;;;;6193492;28;89016;-64
2023/12/21 14:15:23;;;;;;;2.75;1.52;;;22.70;73.90;;;;;;6205659;28;89213;-64
2023/12/21 14:18:25;;;;;;;2.08;1.40;;;22.80;73.90;;;;;;6206416;28;89036;-64
2023/12/21 14:21:29;;;;;;;5.85;2.55;;;22.80;73.90;;;;;;6203521;28;89018;-64
2023/12/21 14:24:31;;;;;;;3.70;1.90;;;22.80;73.80;;;;;;6205695;28;89106;-64
2023/12/21 14:27:33;;;;;;;2.53;1.63;;;22.70;73.70;;;;;;6206204;28;89433;-64
2023/12/21 14:30:35;;;;;;;2.90;1.63;;;22.80;73.70;;;;;;6205019;28;90030;-63
2023/12/21 14:33:37;;;;;;;3.00;1.83;;;22.80;73.70;;;;;;6202041;28;89402;-63
2023/12/21 14:36:41;;;;;;;1.55;1.40;;;22.70;73.70;;;;;;6205876;28;88302;-63
2023/12/21 14:39:43;;;;;;;1.95;1.55;;;22.80;73.70;;;;;;6205348;28;89094;-63
2023/12/21 14:42:44;;;;;;;1.90;1.35;;;22.70;73.60;;;;;;6194058;28;89309;-63
2023/12/21 14:45:47;;;;;;;3.33;1.60;;;22.80;73.70;;;;;;6205073;28;90013;-63
2023/12/21 14:48:49;;;;;;;1.98;1.50;;;22.70;73.50;;;;;;6204953;28;89151;-64
2023/12/21 14:51:52;;;;;;;1.90;1.42;;;22.70;73.50;;;;;;6203489;28;88996;-63
2023/12/21 14:54:54;;;;;;;2.40;1.60;;;22.70;73.50;;;;;;6189433;28;88068;-64
2023/12/21 14:57:56;;;;;;;3.20;1.95;;;22.70;73.50;;;;;;6193733;28;89044;-64
2023/12/21 15:01:00;;;;;;;2.55;1.73;;;22.80;73.60;;;;;;6214318;28;87932;-64
2023/12/21 15:04:02;;;;;;;3.00;1.80;;;22.70;73.50;;;;;;6206634;28;87917;-64
2023/12/21 15:07:05;;;;;;;1.98;1.60;;;22.70;73.50;;;;;;6206026;28;88460;-64
2023/12/21 15:10:08;;;;;;;4.15;1.92;;;22.80;73.60;;;;;;6201954;28;89205;-64
2023/12/21 15:13:12;;;;;;;2.63;1.63;;;22.70;73.40;;;;;;6194512;28;89919;-63
2023/12/21 15:16:14;;;;;;;2.00;1.40;;;22.80;73.40;;;;;;6205558;28;90102;-64
2023/12/21 15:19:16;;;;;;;2.20;1.50;;;22.70;73.40;;;;;;6204670;28;89052;-64
2023/12/21 15:22:20;;;;;;;1.98;1.42;;;22.80;73.40;;;;;;6195752;28;89034;-64
2023/12/21 15:25:22;;;;;;;1.85;1.48;;;22.80;73.40;;;;;;6198641;28;89026;-64
2023/12/21 15:28:24;;;;;;;1.90;1.42;;;22.80;73.30;;;;;;6204329;28;87994;-64
2023/12/21 15:31:26;;;;;;;3.58;1.52;;;22.80;73.30;;;;;;6204075;28;89063;-64
2023/12/21 15:34:29;;;;;;;1.85;1.40;;;22.80;73.30;;;;;;6199712;28;89179;-65
2023/12/21 15:37:32;;;;;;;2.35;1.55;;;22.80;73.30;;;;;;6194424;28;88548;-64
2023/12/21 15:40:34;;;;;;;1.70;1.27;;;22.80;73.30;;;;;;6203771;28;88792;-64
2023/12/21 15:43:36;;;;;;;1.73;1.40;;;22.80;73.30;;;;;;6204713;28;89030;-64
2023/12/21 15:46:38;;;;;;;2.80;1.60;;;22.80;73.30;;;;;;6215340;28;90070;-64
2023/12/21 15:49:40;;;;;;;2.17;1.50;;;22.80;73.30;;;;;;6202993;28;89055;-64